createdAt,value
2022-08-02T00:01:23.098Z,100.00
2022-08-02T00:03:50.543Z,100.00
2022-08-02T00:06:18.287Z,100.00
2022-08-02T00:08:45.675Z,100.00
2022-08-02T00:11:13.178Z,100.00
2022-08-02T00:13:40.682Z,100.00
2022-08-02T00:16:08.596Z,100.00
2022-08-02T00:18:37.475Z,100.00
2022-08-02T00:21:05.084Z,100.00
2022-08-02T00:23:32.881Z,100.00
2022-08-02T00:26:20.385Z,100.00
2022-08-02T00:28:48.124Z,100.00
2022-08-02T00:31:15.552Z,100.00
2022-08-02T00:34:26.389Z,100.00
2022-08-02T00:36:31.800Z,100.00
2022-08-02T00:38:59.253Z,100.00
2022-08-02T00:41:26.812Z,100.00
2022-08-02T00:43:54.229Z,100.00
2022-08-02T00:46:21.968Z,100.00
2022-08-02T00:48:50.832Z,100.00
2022-08-02T00:51:18.938Z,100.00
2022-08-02T00:53:46.350Z,100.00
2022-08-02T00:56:13.863Z,100.00
2022-08-02T00:58:41.273Z,100.00
2022-08-02T01:01:08.805Z,100.00
2022-08-02T01:03:36.244Z,100.00
2022-08-02T01:06:13.098Z,100.00
2022-08-02T01:08:40.801Z,100.00
2022-08-02T01:11:08.768Z,100.00
2022-08-02T01:13:36.296Z,100.00
2022-08-02T01:16:12.064Z,100.00
2022-08-02T01:18:45.205Z,100.00
2022-08-02T01:21:32.681Z,100.00
2022-08-02T01:24:17.736Z,100.00
2022-08-02T01:26:51.968Z,100.00
2022-08-02T01:29:23.485Z,100.00
2022-08-02T01:31:54.974Z,100.00
2022-08-02T01:34:29.908Z,100.00
2022-08-02T01:37:01.674Z,100.00
2022-08-02T01:39:35.046Z,100.00
2022-08-02T01:42:04.694Z,100.00
2022-08-02T01:44:37.009Z,100.00
2022-08-02T01:47:08.552Z,100.00
2022-08-02T01:49:38.505Z,100.00
2022-08-02T01:52:23.487Z,100.00
2022-08-02T01:54:53.452Z,100.00
2022-08-02T01:57:23.984Z,100.00
2022-08-02T01:59:57.904Z,100.00
2022-08-02T02:02:30.053Z,100.00
2022-08-02T02:05:00.631Z,100.00
2022-08-02T02:07:29.790Z,100.00
2022-08-02T02:09:59.410Z,100.00
2022-08-02T02:12:28.398Z,100.00
2022-08-02T02:14:58.998Z,100.00
2022-08-02T02:18:11.686Z,100.00
2022-08-02T02:20:19.143Z,100.00
2022-08-02T02:22:49.778Z,100.00
2022-08-02T02:25:20.083Z,100.00
2022-08-02T02:27:58.970Z,100.00
2022-08-02T02:30:29.862Z,100.00
2022-08-02T02:33:00.738Z,100.00
2022-08-02T02:35:30.651Z,100.00
2022-08-02T02:38:01.781Z,100.00
2022-08-02T02:40:30.261Z,100.00
2022-08-02T02:43:00.889Z,100.00
2022-08-02T02:45:32.769Z,100.00
2022-08-02T02:48:03.071Z,100.00
2022-08-02T02:50:31.520Z,100.00
2022-08-02T02:53:00.017Z,100.00
2022-08-02T02:55:29.345Z,100.00
2022-08-02T02:57:58.707Z,100.00
2022-08-02T03:00:40.870Z,100.00
2022-08-02T03:03:10.912Z,100.00
2022-08-02T03:05:38.408Z,100.00
2022-08-02T03:08:06.338Z,100.00
2022-08-02T03:10:34.518Z,100.00
2022-08-02T03:13:02.422Z,100.00
2022-08-02T03:15:31.069Z,100.00
2022-08-02T03:17:58.758Z,100.00
2022-08-02T03:20:27.508Z,100.00
2022-08-02T03:22:54.996Z,100.00
2022-08-02T03:25:22.416Z,100.00
2022-08-02T03:27:49.812Z,100.00
2022-08-02T03:30:17.493Z,100.00
2022-08-02T03:32:47.568Z,100.00
2022-08-02T03:35:22.943Z,100.00
2022-08-02T03:37:54.914Z,100.00
2022-08-02T03:40:23.111Z,100.00
2022-08-02T03:42:51.253Z,100.00
2022-08-02T03:45:19.462Z,100.00
2022-08-02T03:47:47.499Z,100.00
2022-08-02T03:50:15.498Z,100.00
2022-08-02T03:52:44.799Z,100.00
2022-08-02T03:55:14.197Z,100.00
2022-08-02T03:57:42.811Z,100.00
2022-08-02T04:00:12.943Z,100.00
2022-08-02T04:02:40.668Z,100.00
2022-08-02T04:05:09.194Z,100.00
2022-08-02T04:08:33.587Z,100.00
2022-08-02T04:10:25.467Z,100.00
2022-08-02T04:12:52.288Z,100.00
2022-08-02T04:15:19.843Z,100.00
2022-08-02T04:17:51.882Z,100.00
2022-08-02T04:20:22.694Z,100.00
2022-08-02T04:22:57.921Z,100.00
2022-08-02T04:25:38.193Z,100.00
2022-08-02T04:28:16.527Z,100.00
2022-08-02T04:30:46.303Z,100.00
2022-08-02T04:33:14.402Z,100.00
2022-08-02T04:35:41.970Z,100.00
2022-08-02T04:38:10.673Z,100.00
2022-08-02T04:40:39.642Z,100.00
2022-08-02T04:43:07.203Z,100.00
2022-08-02T04:45:35.188Z,100.00
2022-08-02T04:48:04.977Z,100.00
2022-08-02T04:50:33.187Z,100.00
2022-08-02T04:53:00.642Z,100.00
2022-08-02T04:55:29.854Z,100.00
2022-08-02T04:57:59.248Z,100.00
2022-08-02T05:00:28.172Z,100.00
2022-08-02T05:02:56.614Z,100.00
2022-08-02T05:05:24.471Z,100.00
2022-08-02T05:07:52.041Z,100.00
2022-08-02T05:10:19.591Z,100.00
2022-08-02T05:12:47.132Z,100.00
2022-08-02T05:15:18.491Z,100.00
2022-08-02T05:17:48.214Z,100.00
2022-08-02T05:20:16.966Z,100.00
2022-08-02T05:22:44.841Z,100.00
2022-08-02T05:25:12.890Z,100.00
2022-08-02T05:27:40.821Z,100.00
2022-08-02T05:30:09.392Z,100.00
2022-08-02T05:32:44.443Z,100.00
2022-08-02T05:35:12.051Z,100.00
2022-08-02T05:37:39.528Z,100.00
2022-08-02T05:40:13.128Z,100.00
2022-08-02T05:42:40.995Z,100.00
2022-08-02T05:45:09.197Z,100.00
2022-08-02T05:47:38.861Z,100.00
2022-08-02T05:50:07.904Z,100.00
2022-08-02T05:52:45.379Z,100.00
2022-08-02T05:55:18.230Z,100.00
2022-08-02T05:57:54.392Z,100.00
2022-08-02T06:00:22.815Z,100.00
2022-08-02T06:03:16.513Z,100.00
2022-08-02T06:05:51.776Z,100.00
2022-08-02T06:08:21.887Z,100.00
2022-08-02T06:10:50.441Z,100.00
2022-08-02T06:13:18.128Z,100.00
2022-08-02T06:15:53.206Z,100.00
2022-08-02T06:18:28.471Z,100.00
2022-08-02T06:20:58.688Z,100.00
2022-08-02T06:23:58.620Z,100.00
2022-08-02T06:26:28.827Z,100.00
2022-08-02T06:28:57.848Z,100.00
2022-08-02T06:31:25.501Z,100.00
2022-08-02T06:33:54.409Z,100.00
2022-08-02T06:36:31.951Z,100.00
2022-08-02T06:39:05.550Z,100.00
2022-08-02T06:41:42.209Z,100.00
2022-08-02T06:44:43.033Z,100.00
2022-08-02T06:47:11.256Z,100.00
2022-08-02T06:49:52.382Z,100.00
2022-08-02T06:52:27.835Z,100.00
2022-08-02T06:54:57.464Z,100.00
2022-08-02T06:57:25.289Z,100.00
2022-08-02T06:59:53.376Z,100.00
2022-08-02T07:02:20.996Z,100.00
2022-08-02T07:04:49.902Z,100.00
2022-08-02T07:07:17.566Z,100.00
2022-08-02T07:09:57.040Z,100.00
2022-08-02T07:12:30.039Z,100.00
2022-08-02T07:14:58.206Z,100.00
2022-08-02T07:17:25.821Z,100.00
2022-08-02T07:19:54.595Z,100.00
2022-08-02T07:22:23.616Z,100.00
2022-08-02T07:24:51.263Z,100.00
2022-08-02T07:27:19.363Z,100.00
2022-08-02T07:29:47.587Z,100.00
2022-08-02T07:32:15.997Z,100.00
2022-08-02T07:34:51.319Z,100.00
2022-08-02T07:37:35.511Z,100.00
2022-08-02T07:40:13.961Z,100.00
2022-08-02T07:42:42.810Z,100.00
2022-08-02T07:45:11.281Z,100.00
2022-08-02T07:47:39.003Z,100.00
2022-08-02T07:50:08.015Z,100.00
2022-08-02T07:52:36.864Z,100.00
2022-08-02T07:55:05.419Z,100.00
2022-08-02T07:57:33.197Z,100.00
2022-08-02T08:00:01.173Z,100.00
2022-08-02T08:02:28.635Z,100.00
2022-08-02T08:04:56.080Z,100.00
2022-08-02T08:07:24.459Z,100.00
2022-08-02T08:09:56.646Z,100.00
2022-08-02T08:12:24.414Z,100.00
2022-08-02T08:14:51.931Z,100.00
2022-08-02T08:17:19.416Z,100.00
2022-08-02T08:19:50.958Z,100.00
2022-08-02T08:22:19.943Z,100.00
2022-08-02T08:24:48.612Z,100.00
2022-08-02T08:27:18.012Z,100.00
2022-08-02T08:29:46.249Z,100.00
2022-08-02T08:32:17.553Z,100.00
2022-08-02T08:34:46.242Z,100.00
2022-08-02T08:37:16.813Z,100.00
2022-08-02T08:39:56.343Z,100.00
2022-08-02T08:42:27.958Z,100.00
2022-08-02T08:44:56.004Z,100.00
2022-08-02T08:47:25.182Z,100.00
2022-08-02T08:49:55.800Z,100.00
2022-08-02T08:52:26.579Z,100.00
2022-08-02T08:54:54.952Z,100.00
2022-08-02T08:57:22.448Z,100.00
2022-08-02T08:59:51.599Z,100.00
2022-08-02T09:02:20.597Z,100.00
2022-08-02T09:04:54.925Z,100.00
2022-08-02T09:07:22.833Z,100.00
2022-08-02T09:09:50.359Z,100.00
2022-08-02T09:12:19.582Z,100.00
2022-08-02T09:14:50.061Z,100.00
2022-08-02T09:17:21.995Z,100.00
2022-08-02T09:20:07.284Z,100.00
2022-08-02T09:22:34.720Z,100.00
2022-08-02T09:25:02.268Z,100.00
2022-08-02T09:27:37.220Z,100.00
2022-08-02T09:30:13.264Z,100.00
2022-08-02T09:32:49.890Z,100.00
2022-08-02T09:36:07.389Z,100.00
2022-08-02T09:38:20.307Z,100.00
2022-08-02T09:40:47.760Z,100.00
2022-08-02T09:43:16.365Z,100.00
2022-08-02T09:45:43.878Z,100.00
2022-08-02T09:48:13.351Z,100.00
2022-08-02T09:50:42.299Z,100.00
2022-08-02T09:53:13.791Z,100.00
2022-08-02T09:55:41.547Z,100.00
2022-08-02T09:58:19.296Z,100.00
2022-08-02T10:00:55.894Z,100.00
2022-08-02T10:03:31.950Z,100.00
2022-08-02T10:06:05.780Z,100.00
2022-08-02T10:08:34.095Z,100.00
2022-08-02T10:11:03.561Z,100.00
2022-08-02T10:13:32.833Z,100.00
2022-08-02T10:16:00.444Z,100.00
2022-08-02T10:18:38.617Z,100.00
2022-08-02T10:21:11.083Z,100.00
2022-08-02T10:23:40.694Z,100.00
2022-08-02T10:26:08.768Z,100.00
2022-08-02T10:28:37.450Z,100.00
2022-08-02T10:31:07.232Z,100.00
2022-08-02T10:33:38.460Z,100.00
2022-08-02T10:36:08.473Z,100.00
2022-08-02T10:38:36.994Z,100.00
2022-08-02T10:41:05.019Z,100.00
2022-08-02T10:43:48.895Z,100.00
2022-08-02T10:46:32.254Z,100.00
2022-08-02T10:49:36.646Z,100.00
2022-08-02T10:52:09.907Z,100.00
2022-08-02T10:54:39.980Z,100.00
2022-08-02T10:57:19.450Z,100.00
2022-08-02T10:59:47.249Z,100.00
2022-08-02T11:02:33.405Z,100.00
2022-08-02T11:05:11.460Z,100.00
2022-08-02T11:07:41.318Z,100.00
2022-08-02T11:10:32.799Z,100.00
2022-08-02T11:13:02.521Z,100.00
2022-08-02T11:15:33.216Z,100.00
2022-08-02T11:18:00.614Z,100.00
2022-08-02T11:20:29.598Z,100.00
2022-08-02T11:23:45.029Z,100.00
2022-08-02T11:26:47.208Z,100.00
2022-08-02T11:29:16.006Z,100.00
2022-08-02T11:31:45.681Z,100.00
2022-08-02T11:34:37.020Z,100.00
2022-08-02T11:37:02.304Z,97.27
2022-08-02T11:39:29.774Z,100.00
2022-08-02T11:41:58.761Z,100.00
2022-08-02T11:44:27.508Z,100.00
2022-08-02T11:46:56.757Z,99.61
2022-08-02T11:49:25.269Z,100.00
2022-08-02T11:51:54.586Z,100.00
2022-08-02T11:54:26.291Z,100.00
2022-08-02T11:56:54.049Z,96.90
2022-08-02T11:59:21.926Z,98.61
2022-08-02T12:01:49.739Z,100.00
2022-08-02T12:04:22.747Z,93.86
2022-08-02T12:06:58.191Z,97.70
2022-08-02T12:09:28.838Z,98.56
2022-08-02T12:11:57.496Z,98.20
2022-08-02T12:14:26.417Z,100.00
2022-08-02T12:17:11.767Z,99.33
2022-08-02T12:19:42.131Z,94.86
2022-08-02T12:22:16.667Z,94.61
2022-08-02T12:24:48.484Z,90.60
2022-08-02T12:27:37.424Z,89.32
2022-08-02T12:30:08.489Z,93.63
2022-08-02T12:32:37.255Z,93.22
2022-08-02T12:35:08.210Z,92.10
2022-08-02T12:37:36.994Z,94.31
2022-08-02T12:40:26.106Z,91.17
2022-08-02T12:42:56.544Z,87.35
2022-08-02T12:45:24.387Z,89.94
2022-08-02T12:47:53.971Z,88.79
2022-08-02T12:50:23.068Z,84.45
2022-08-02T12:52:51.735Z,81.46
2022-08-02T12:55:24.246Z,84.49
2022-08-02T12:57:55.161Z,81.70
2022-08-02T13:00:30.718Z,77.38
2022-08-02T13:02:59.369Z,82.91
2022-08-02T13:05:28.998Z,84.22
2022-08-02T13:08:17.091Z,88.11
2022-08-02T13:10:44.940Z,87.78
2022-08-02T13:13:13.695Z,84.43
2022-08-02T13:15:49.772Z,82.82
2022-08-02T13:18:18.646Z,74.32
2022-08-02T13:20:46.320Z,70.99
2022-08-02T13:23:21.119Z,74.86
2022-08-02T13:25:52.870Z,73.97
2022-08-02T13:28:22.615Z,75.61
2022-08-02T13:30:50.768Z,76.88
2022-08-02T13:33:19.246Z,76.78
2022-08-02T13:35:48.035Z,77.93
2022-08-02T13:38:15.664Z,76.56
2022-08-02T13:41:04.427Z,76.73
2022-08-02T13:43:53.343Z,72.36
2022-08-02T13:46:28.759Z,75.63
2022-08-02T13:48:57.183Z,70.21
2022-08-02T13:51:24.776Z,69.20
2022-08-02T13:53:53.569Z,70.68
2022-08-02T13:56:21.028Z,73.07
2022-08-02T13:59:54.166Z,70.96
2022-08-02T14:01:52.959Z,79.19
2022-08-02T14:04:20.442Z,73.49
2022-08-02T14:06:47.892Z,70.20
2022-08-02T14:09:17.087Z,74.44
2022-08-02T14:11:45.162Z,73.52
2022-08-02T14:14:16.569Z,73.39
2022-08-02T14:16:45.075Z,76.19
2022-08-02T14:19:16.437Z,75.37
2022-08-02T14:21:46.493Z,80.37
2022-08-02T14:24:15.192Z,75.56
2022-08-02T14:26:42.977Z,76.63
2022-08-02T14:29:10.792Z,80.45
2022-08-02T14:31:43.985Z,82.14
2022-08-02T14:34:12.571Z,79.09
2022-08-02T14:36:40.053Z,82.08
2022-08-02T14:39:07.646Z,79.04
2022-08-02T14:42:00.179Z,78.52
2022-08-02T14:44:24.823Z,83.85
2022-08-02T14:46:53.717Z,79.60
2022-08-02T14:49:26.800Z,82.55
2022-08-02T14:51:54.715Z,85.53
2022-08-02T14:54:27.804Z,78.51
2022-08-02T14:56:58.118Z,76.58
2022-08-02T14:59:25.548Z,70.18
2022-08-02T15:01:54.467Z,76.12
2022-08-02T15:04:22.060Z,81.16
2022-08-02T15:06:49.532Z,80.80
2022-08-02T15:09:17.003Z,82.14
2022-08-02T15:11:47.347Z,85.16
2022-08-02T15:14:18.469Z,89.49
2022-08-02T15:16:58.413Z,81.19
2022-08-02T15:19:29.482Z,86.44
2022-08-02T15:22:16.600Z,91.08
2022-08-02T15:24:46.594Z,76.18
2022-08-02T15:27:14.707Z,76.61
2022-08-02T15:29:43.177Z,79.70
2022-08-02T15:32:12.619Z,84.21
2022-08-02T15:34:40.412Z,90.22
2022-08-02T15:37:07.972Z,76.11
2022-08-02T15:39:35.513Z,79.11
2022-08-02T15:42:03.375Z,78.43
2022-08-02T15:44:30.880Z,82.12
2022-08-02T15:46:58.319Z,76.03
2022-08-02T15:49:27.174Z,73.81
2022-08-02T15:51:55.580Z,73.03
2022-08-02T15:54:23.068Z,73.81
2022-08-02T15:56:50.904Z,75.46
2022-08-02T15:59:18.576Z,83.40
2022-08-02T16:01:47.973Z,79.86
2022-08-02T16:04:16.744Z,83.40
2022-08-02T16:06:45.908Z,72.79
2022-08-02T16:09:13.549Z,77.21
2022-08-02T16:11:41.021Z,77.18
2022-08-02T16:14:09.517Z,84.78
2022-08-02T16:16:40.163Z,74.76
2022-08-02T16:19:47.810Z,72.59
2022-08-02T16:21:56.906Z,84.19
2022-08-02T16:24:24.574Z,74.98
2022-08-02T16:26:51.999Z,69.16
2022-08-02T16:29:19.766Z,71.94
2022-08-02T16:31:47.499Z,64.82
2022-08-02T16:34:15.222Z,72.32
2022-08-02T16:36:42.661Z,68.14
2022-08-02T16:39:11.538Z,68.61
2022-08-02T16:41:51.125Z,62.45
2022-08-02T16:44:29.195Z,61.56
2022-08-02T16:47:01.318Z,68.75
2022-08-02T16:50:06.944Z,73.12
2022-08-02T16:52:18.996Z,64.74
2022-08-02T16:54:49.571Z,69.10
2022-08-02T16:57:19.760Z,72.56
2022-08-02T16:59:57.758Z,71.83
2022-08-02T17:02:26.039Z,72.17
2022-08-02T17:04:53.466Z,67.95
2022-08-02T17:08:07.384Z,69.49
2022-08-02T17:10:10.456Z,69.85
2022-08-02T17:12:38.594Z,73.45
2022-08-02T17:16:00.872Z,69.38
2022-08-02T17:17:55.111Z,79.30
2022-08-02T17:20:24.509Z,79.67
2022-08-02T17:22:52.112Z,79.09
2022-08-02T17:25:21.079Z,72.78
2022-08-02T17:27:55.500Z,74.49
2022-08-02T17:30:26.450Z,88.39
2022-08-02T17:32:57.668Z,82.30
2022-08-02T17:35:26.928Z,87.03
2022-08-02T17:38:11.096Z,94.04
2022-08-02T17:40:46.481Z,95.89
2022-08-02T17:43:14.602Z,83.11
2022-08-02T17:48:55.088Z,87.32
2022-08-02T17:52:15.487Z,90.77
2022-08-02T17:54:11.140Z,93.74
2022-08-02T17:56:42.603Z,96.47
2022-08-02T17:59:12.708Z,99.51
2022-08-02T18:01:53.151Z,100.00
2022-08-02T18:04:27.372Z,100.00
2022-08-02T18:06:57.053Z,100.00
2022-08-02T18:09:25.005Z,100.00
2022-08-02T18:11:56.188Z,100.00
2022-08-02T18:14:24.419Z,100.00
2022-08-02T18:16:53.919Z,100.00
2022-08-02T18:19:21.372Z,100.00
2022-08-02T18:21:48.961Z,100.00
2022-08-02T18:24:16.483Z,100.00
2022-08-02T18:26:44.029Z,100.00
2022-08-02T18:29:12.745Z,100.00
2022-08-02T18:31:50.854Z,100.00
2022-08-02T18:34:19.335Z,100.00
2022-08-02T18:36:51.787Z,100.00
2022-08-02T18:39:19.254Z,100.00
2022-08-02T18:41:47.752Z,100.00
2022-08-02T18:44:16.954Z,100.00
2022-08-02T18:46:46.386Z,100.00
2022-08-02T18:49:16.946Z,100.00
2022-08-02T18:51:44.797Z,100.00
2022-08-02T18:54:12.304Z,100.00
2022-08-02T18:56:40.064Z,100.00
2022-08-02T18:59:07.803Z,100.00
2022-08-02T19:01:48.677Z,100.00
2022-08-02T19:04:26.873Z,100.00
2022-08-02T19:06:55.389Z,100.00
2022-08-02T19:09:22.818Z,100.00
2022-08-02T19:11:50.523Z,100.00
2022-08-02T19:14:19.028Z,100.00
2022-08-02T19:16:57.358Z,100.00
2022-08-02T19:19:28.906Z,100.00
2022-08-02T19:22:17.740Z,100.00
2022-08-02T19:24:45.924Z,100.00
2022-08-02T19:27:14.751Z,100.00
2022-08-02T19:29:48.777Z,100.00
2022-08-02T19:32:42.620Z,100.00
2022-08-02T19:35:19.644Z,100.00
2022-08-02T19:37:59.122Z,100.00
2022-08-02T19:40:28.887Z,100.00
2022-08-02T19:44:26.241Z,100.00
2022-08-02T19:45:51.097Z,100.00
2022-08-02T19:48:24.413Z,100.00
2022-08-02T19:50:59.289Z,100.00
2022-08-02T19:53:46.880Z,100.00
2022-08-02T19:56:20.932Z,100.00
2022-08-02T19:58:49.051Z,100.00
2022-08-02T20:01:17.839Z,100.00
2022-08-02T20:03:51.989Z,100.00
2022-08-02T20:06:29.389Z,100.00
2022-08-02T20:08:58.855Z,100.00
2022-08-02T20:11:26.915Z,100.00
2022-08-02T20:13:54.377Z,100.00
2022-08-02T20:16:28.198Z,100.00
2022-08-02T20:18:57.504Z,100.00
2022-08-02T20:21:36.577Z,100.00
2022-08-02T20:24:05.656Z,100.00
2022-08-02T20:26:33.347Z,100.00
2022-08-02T20:29:03.194Z,100.00
2022-08-02T20:31:30.901Z,100.00
2022-08-02T20:33:59.821Z,100.00
2022-08-02T20:36:28.128Z,100.00
2022-08-02T20:38:56.064Z,100.00
2022-08-02T20:41:23.556Z,100.00
2022-08-02T20:44:04.981Z,100.00
2022-08-02T20:46:43.174Z,100.00
2022-08-02T20:49:21.579Z,100.00
2022-08-02T20:51:52.578Z,100.00
2022-08-02T20:54:21.566Z,100.00
2022-08-02T20:56:50.473Z,100.00
2022-08-02T20:59:21.048Z,100.00
2022-08-02T21:01:57.196Z,100.00
2022-08-02T21:04:27.129Z,100.00
2022-08-02T21:06:59.026Z,100.00
2022-08-02T21:09:52.651Z,100.00
2022-08-02T21:12:14.424Z,100.00
2022-08-02T21:14:41.865Z,100.00
2022-08-02T21:17:11.194Z,100.00
2022-08-02T21:19:44.331Z,100.00
2022-08-02T21:22:11.906Z,100.00
2022-08-02T21:24:41.184Z,100.00
2022-08-02T21:27:52.041Z,100.00
2022-08-02T21:29:56.433Z,100.00
2022-08-02T21:32:23.853Z,100.00
2022-08-02T21:34:53.876Z,100.00
2022-08-02T21:37:21.336Z,100.00
2022-08-02T21:40:00.793Z,100.00
2022-08-02T21:42:28.490Z,100.00
2022-08-02T21:44:57.340Z,100.00
2022-08-02T21:47:26.262Z,100.00
2022-08-02T21:50:13.703Z,100.00
2022-08-02T21:52:52.032Z,100.00
2022-08-02T21:55:24.066Z,100.00
2022-08-02T21:58:07.475Z,100.00
2022-08-02T22:00:34.898Z,100.00
2022-08-02T22:05:51.023Z,100.00
2022-08-02T22:08:18.437Z,100.00
2022-08-02T22:11:04.252Z,100.00
2022-08-02T22:13:47.247Z,100.00
2022-08-02T22:16:15.494Z,100.00
2022-08-02T22:18:51.265Z,100.00
2022-08-02T22:21:20.795Z,100.00
2022-08-02T22:23:51.674Z,100.00
2022-08-02T22:26:19.769Z,100.00
2022-08-02T22:28:51.122Z,100.00
2022-08-02T22:34:11.554Z,100.00
2022-08-02T22:36:56.170Z,100.00
2022-08-02T22:39:23.614Z,100.00
2022-08-02T22:42:05.118Z,100.00
2022-08-02T22:44:34.861Z,100.00
2022-08-02T22:47:07.070Z,100.00
2022-08-02T22:49:43.869Z,100.00
2022-08-02T22:52:21.935Z,100.00
2022-08-02T22:54:50.824Z,100.00
2022-08-02T22:57:29.940Z,100.00
2022-08-02T22:58:51.465Z,78.55
2022-08-02T22:59:05.141Z,100.00
2022-08-02T22:59:11.917Z,100.00
2022-08-02T22:59:58.801Z,100.00
2022-08-02T23:02:26.658Z,100.00
2022-08-02T23:04:54.137Z,100.00
2022-08-02T23:07:22.853Z,100.00
2022-08-02T23:09:50.262Z,100.00
2022-08-02T23:12:19.683Z,100.00
2022-08-02T23:14:47.436Z,100.00
2022-08-02T23:17:32.270Z,100.00
2022-08-02T23:19:59.731Z,100.00
2022-08-02T23:22:32.385Z,100.00
2022-08-02T23:25:01.213Z,100.00
2022-08-02T23:27:29.317Z,100.00
2022-08-02T23:29:56.915Z,100.00
2022-08-02T23:32:25.453Z,100.00
2022-08-02T23:34:53.689Z,100.00
2022-08-02T23:37:22.497Z,100.00
2022-08-02T23:39:51.579Z,100.00
2022-08-02T23:42:19.401Z,100.00
2022-08-02T23:44:47.007Z,100.00
2022-08-02T23:47:14.446Z,100.00
2022-08-02T23:49:41.899Z,100.00
2022-08-02T23:52:09.595Z,100.00
2022-08-02T23:54:37.118Z,100.00
2022-08-02T23:57:20.579Z,100.00
2022-08-02T23:59:49.095Z,100.00
